sensor_id;sensor_type;location;lat;lon;timestamp;temperature;humidity
68912;SHT31;55953;51.650;-0.522;2023-07-22T00:00:22;14.52;72.85
68912;SHT31;55953;51.650;-0.522;2023-07-22T00:03:10;14.49;72.84
68912;SHT31;55953;51.650;-0.522;2023-07-22T00:05:39;14.48;72.90
68912;SHT31;55953;51.650;-0.522;2023-07-22T00:08:07;14.48;72.90
68912;SHT31;55953;51.650;-0.522;2023-07-22T00:10:36;14.48;72.98
68912;SHT31;55953;51.650;-0.522;2023-07-22T00:13:09;14.48;72.99
68912;SHT31;55953;51.650;-0.522;2023-07-22T00:15:37;14.48;72.97
68912;SHT31;55953;51.650;-0.522;2023-07-22T00:18:05;14.52;72.99
68912;SHT31;55953;51.650;-0.522;2023-07-22T00:20:33;14.55;73.11
68912;SHT31;55953;51.650;-0.522;2023-07-22T00:23:01;14.51;73.19
68912;SHT31;55953;51.650;-0.522;2023-07-22T00:25:29;14.46;73.16
68912;SHT31;55953;51.650;-0.522;2023-07-22T00:27:56;14.42;73.29
68912;SHT31;55953;51.650;-0.522;2023-07-22T00:30:24;14.43;73.30
68912;SHT31;55953;51.650;-0.522;2023-07-22T00:32:53;14.48;73.26
68912;SHT31;55953;51.650;-0.522;2023-07-22T00:35:21;14.44;73.32
68912;SHT31;55953;51.650;-0.522;2023-07-22T00:37:49;14.43;73.21
68912;SHT31;55953;51.650;-0.522;2023-07-22T00:40:17;14.44;73.33
68912;SHT31;55953;51.650;-0.522;2023-07-22T00:42:46;14.42;73.24
68912;SHT31;55953;51.650;-0.522;2023-07-22T00:45:14;14.41;73.26
68912;SHT31;55953;51.650;-0.522;2023-07-22T00:47:42;14.46;73.16
68912;SHT31;55953;51.650;-0.522;2023-07-22T00:50:12;14.47;73.08
68912;SHT31;55953;51.650;-0.522;2023-07-22T00:52:40;14.48;73.03
68912;SHT31;55953;51.650;-0.522;2023-07-22T00:55:08;14.47;73.14
68912;SHT31;55953;51.650;-0.522;2023-07-22T00:57:36;14.46;73.16
68912;SHT31;55953;51.650;-0.522;2023-07-22T01:00:05;14.44;73.44
68912;SHT31;55953;51.650;-0.522;2023-07-22T01:02:34;14.40;73.52
68912;SHT31;55953;51.650;-0.522;2023-07-22T01:05:02;14.37;73.56
68912;SHT31;55953;51.650;-0.522;2023-07-22T01:07:30;14.36;73.58
68912;SHT31;55953;51.650;-0.522;2023-07-22T01:09:58;14.34;73.39
68912;SHT31;55953;51.650;-0.522;2023-07-22T01:12:26;14.32;73.65
68912;SHT31;55953;51.650;-0.522;2023-07-22T01:14:54;14.33;73.57
68912;SHT31;55953;51.650;-0.522;2023-07-22T01:17:22;14.33;73.61
68912;SHT31;55953;51.650;-0.522;2023-07-22T01:19:50;14.33;73.67
68912;SHT31;55953;51.650;-0.522;2023-07-22T01:22:19;14.33;73.61
68912;SHT31;55953;51.650;-0.522;2023-07-22T01:24:47;14.32;73.62
68912;SHT31;55953;51.650;-0.522;2023-07-22T01:27:14;14.31;73.70
68912;SHT31;55953;51.650;-0.522;2023-07-22T01:29:42;14.28;73.84
68912;SHT31;55953;51.650;-0.522;2023-07-22T01:32:11;14.26;73.86
68912;SHT31;55953;51.650;-0.522;2023-07-22T01:34:39;14.22;73.82
68912;SHT31;55953;51.650;-0.522;2023-07-22T01:37:07;14.18;73.91
68912;SHT31;55953;51.650;-0.522;2023-07-22T01:39:37;14.16;73.98
68912;SHT31;55953;51.650;-0.522;2023-07-22T01:42:05;14.14;73.95
68912;SHT31;55953;51.650;-0.522;2023-07-22T01:44:33;14.12;74.03
68912;SHT31;55953;51.650;-0.522;2023-07-22T01:47:04;14.06;74.07
68912;SHT31;55953;51.650;-0.522;2023-07-22T01:49:32;14.01;74.27
68912;SHT31;55953;51.650;-0.522;2023-07-22T01:52:01;13.93;74.48
68912;SHT31;55953;51.650;-0.522;2023-07-22T01:54:29;13.91;74.60
68912;SHT31;55953;51.650;-0.522;2023-07-22T01:56:56;13.87;74.98
68912;SHT31;55953;51.650;-0.522;2023-07-22T01:59:24;13.85;74.81
68912;SHT31;55953;51.650;-0.522;2023-07-22T02:01:52;13.83;75.03
68912;SHT31;55953;51.650;-0.522;2023-07-22T02:04:20;13.85;75.00
68912;SHT31;55953;51.650;-0.522;2023-07-22T02:06:48;13.84;75.02
68912;SHT31;55953;51.650;-0.522;2023-07-22T02:09:16;13.84;74.97
68912;SHT31;55953;51.650;-0.522;2023-07-22T02:11:43;13.84;75.19
68912;SHT31;55953;51.650;-0.522;2023-07-22T02:14:11;13.81;75.38
68912;SHT31;55953;51.650;-0.522;2023-07-22T02:16:40;13.80;75.39
68912;SHT31;55953;51.650;-0.522;2023-07-22T02:19:08;13.77;75.48
68912;SHT31;55953;51.650;-0.522;2023-07-22T02:21:40;13.75;75.64
68912;SHT31;55953;51.650;-0.522;2023-07-22T02:24:08;13.75;75.77
68912;SHT31;55953;51.650;-0.522;2023-07-22T02:26:37;13.73;75.76
68912;SHT31;55953;51.650;-0.522;2023-07-22T02:29:05;13.73;75.74
68912;SHT31;55953;51.650;-0.522;2023-07-22T02:31:33;13.73;75.91
68912;SHT31;55953;51.650;-0.522;2023-07-22T02:34:01;13.74;75.91
68912;SHT31;55953;51.650;-0.522;2023-07-22T02:36:29;13.76;75.76
68912;SHT31;55953;51.650;-0.522;2023-07-22T02:38:57;13.77;75.88
68912;SHT31;55953;51.650;-0.522;2023-07-22T02:41:25;13.78;75.77
68912;SHT31;55953;51.650;-0.522;2023-07-22T02:43:53;13.81;75.82
68912;SHT31;55953;51.650;-0.522;2023-07-22T02:46:22;13.84;75.74
68912;SHT31;55953;51.650;-0.522;2023-07-22T02:48:50;13.83;75.73
68912;SHT31;55953;51.650;-0.522;2023-07-22T02:51:18;13.82;76.02
68912;SHT31;55953;51.650;-0.522;2023-07-22T02:53:46;13.82;75.85
68912;SHT31;55953;51.650;-0.522;2023-07-22T02:56:14;13.81;76.00
68912;SHT31;55953;51.650;-0.522;2023-07-22T02:58:42;13.83;76.01
68912;SHT31;55953;51.650;-0.522;2023-07-22T03:01:10;13.84;75.86
68912;SHT31;55953;51.650;-0.522;2023-07-22T03:03:38;13.89;75.86
68912;SHT31;55953;51.650;-0.522;2023-07-22T03:06:07;13.91;75.88
68912;SHT31;55953;51.650;-0.522;2023-07-22T03:08:37;13.94;75.88
68912;SHT31;55953;51.650;-0.522;2023-07-22T03:11:05;13.95;75.76
68912;SHT31;55953;51.650;-0.522;2023-07-22T03:13:33;13.92;75.90
68912;SHT31;55953;51.650;-0.522;2023-07-22T03:16:02;13.91;75.98
68912;SHT31;55953;51.650;-0.522;2023-07-22T03:18:33;13.91;76.06
68912;SHT31;55953;51.650;-0.522;2023-07-22T03:21:01;13.94;76.10
68912;SHT31;55953;51.650;-0.522;2023-07-22T03:23:29;13.93;76.27
68912;SHT31;55953;51.650;-0.522;2023-07-22T03:25:57;13.92;76.13
68912;SHT31;55953;51.650;-0.522;2023-07-22T03:28:25;13.91;76.18
68912;SHT31;55953;51.650;-0.522;2023-07-22T03:30:53;13.91;76.32
68912;SHT31;55953;51.650;-0.522;2023-07-22T03:33:21;13.92;76.21
68912;SHT31;55953;51.650;-0.522;2023-07-22T03:35:49;13.93;76.27
68912;SHT31;55953;51.650;-0.522;2023-07-22T03:38:16;13.95;76.32
68912;SHT31;55953;51.650;-0.522;2023-07-22T03:40:45;13.98;76.52
68912;SHT31;55953;51.650;-0.522;2023-07-22T03:43:12;14.00;76.77
68912;SHT31;55953;51.650;-0.522;2023-07-22T03:45:40;13.99;76.88
68912;SHT31;55953;51.650;-0.522;2023-07-22T03:48:08;13.97;77.01
68912;SHT31;55953;51.650;-0.522;2023-07-22T03:50:36;13.95;76.99
68912;SHT31;55953;51.650;-0.522;2023-07-22T03:53:04;13.95;77.09
68912;SHT31;55953;51.650;-0.522;2023-07-22T03:55:32;13.92;77.05
68912;SHT31;55953;51.650;-0.522;2023-07-22T03:58:00;13.88;77.22
68912;SHT31;55953;51.650;-0.522;2023-07-22T04:00:28;13.87;77.37
68912;SHT31;55953;51.650;-0.522;2023-07-22T04:02:55;13.92;77.30
68912;SHT31;55953;51.650;-0.522;2023-07-22T04:05:23;13.92;77.47
68912;SHT31;55953;51.650;-0.522;2023-07-22T04:07:51;13.92;77.25
68912;SHT31;55953;51.650;-0.522;2023-07-22T04:10:19;13.97;77.27
68912;SHT31;55953;51.650;-0.522;2023-07-22T04:12:47;13.95;77.21
68912;SHT31;55953;51.650;-0.522;2023-07-22T04:15:14;13.95;76.97
68912;SHT31;55953;51.650;-0.522;2023-07-22T04:17:44;13.97;77.11
68912;SHT31;55953;51.650;-0.522;2023-07-22T04:20:12;14.00;77.10
68912;SHT31;55953;51.650;-0.522;2023-07-22T04:22:40;14.01;76.90
68912;SHT31;55953;51.650;-0.522;2023-07-22T04:25:09;14.03;76.86
68912;SHT31;55953;51.650;-0.522;2023-07-22T04:27:36;14.03;76.96
68912;SHT31;55953;51.650;-0.522;2023-07-22T04:30:05;14.03;76.79
68912;SHT31;55953;51.650;-0.522;2023-07-22T04:32:33;14.00;76.88
68912;SHT31;55953;51.650;-0.522;2023-07-22T04:35:01;13.98;76.87
68912;SHT31;55953;51.650;-0.522;2023-07-22T04:37:30;13.96;77.04
68912;SHT31;55953;51.650;-0.522;2023-07-22T04:39:59;13.92;76.96
68912;SHT31;55953;51.650;-0.522;2023-07-22T04:42:27;13.92;76.87
68912;SHT31;55953;51.650;-0.522;2023-07-22T04:44:55;13.94;76.85
68912;SHT31;55953;51.650;-0.522;2023-07-22T04:47:22;13.96;76.89
68912;SHT31;55953;51.650;-0.522;2023-07-22T04:49:50;13.99;76.89
68912;SHT31;55953;51.650;-0.522;2023-07-22T04:52:18;14.03;76.79
68912;SHT31;55953;51.650;-0.522;2023-07-22T04:54:46;14.08;76.81
68912;SHT31;55953;51.650;-0.522;2023-07-22T04:57:14;14.09;76.71
68912;SHT31;55953;51.650;-0.522;2023-07-22T04:59:44;14.14;76.70
68912;SHT31;55953;51.650;-0.522;2023-07-22T05:02:12;14.18;76.47
68912;SHT31;55953;51.650;-0.522;2023-07-22T05:04:40;14.19;76.40
68912;SHT31;55953;51.650;-0.522;2023-07-22T05:07:08;14.18;76.32
68912;SHT31;55953;51.650;-0.522;2023-07-22T05:09:36;14.21;76.43
68912;SHT31;55953;51.650;-0.522;2023-07-22T05:12:04;14.25;76.32
68912;SHT31;55953;51.650;-0.522;2023-07-22T05:14:33;14.25;76.26
68912;SHT31;55953;51.650;-0.522;2023-07-22T05:17:00;14.25;76.20
68912;SHT31;55953;51.650;-0.522;2023-07-22T05:19:28;14.23;76.16
68912;SHT31;55953;51.650;-0.522;2023-07-22T05:21:56;14.20;76.30
68912;SHT31;55953;51.650;-0.522;2023-07-22T05:24:24;14.20;76.43
68912;SHT31;55953;51.650;-0.522;2023-07-22T05:26:52;14.23;76.40
68912;SHT31;55953;51.650;-0.522;2023-07-22T05:29:35;14.24;76.38
68912;SHT31;55953;51.650;-0.522;2023-07-22T05:32:03;14.28;76.29
68912;SHT31;55953;51.650;-0.522;2023-07-22T05:34:38;14.32;76.42
68912;SHT31;55953;51.650;-0.522;2023-07-22T05:37:06;14.35;76.42
68912;SHT31;55953;51.650;-0.522;2023-07-22T05:39:33;14.41;76.25
68912;SHT31;55953;51.650;-0.522;2023-07-22T05:42:01;14.41;76.11
68912;SHT31;55953;51.650;-0.522;2023-07-22T05:44:29;14.44;76.13
68912;SHT31;55953;51.650;-0.522;2023-07-22T05:46:57;14.50;76.01
68912;SHT31;55953;51.650;-0.522;2023-07-22T05:49:25;14.52;75.98
68912;SHT31;55953;51.650;-0.522;2023-07-22T05:51:53;14.54;75.87
68912;SHT31;55953;51.650;-0.522;2023-07-22T05:54:21;14.62;75.96
68912;SHT31;55953;51.650;-0.522;2023-07-22T05:56:49;14.69;75.66
68912;SHT31;55953;51.650;-0.522;2023-07-22T05:59:17;14.71;75.55
68912;SHT31;55953;51.650;-0.522;2023-07-22T06:01:48;14.76;75.51
68912;SHT31;55953;51.650;-0.522;2023-07-22T06:04:16;14.79;75.35
68912;SHT31;55953;51.650;-0.522;2023-07-22T06:06:45;14.81;75.40
68912;SHT31;55953;51.650;-0.522;2023-07-22T06:09:12;14.84;75.21
68912;SHT31;55953;51.650;-0.522;2023-07-22T06:11:40;14.89;75.26
68912;SHT31;55953;51.650;-0.522;2023-07-22T06:14:08;14.97;75.13
68912;SHT31;55953;51.650;-0.522;2023-07-22T06:16:36;14.98;74.91
68912;SHT31;55953;51.650;-0.522;2023-07-22T06:19:04;15.01;74.88
68912;SHT31;55953;51.650;-0.522;2023-07-22T06:21:32;15.08;74.98
68912;SHT31;55953;51.650;-0.522;2023-07-22T06:23:59;15.14;74.79
68912;SHT31;55953;51.650;-0.522;2023-07-22T06:26:27;15.14;74.66
68912;SHT31;55953;51.650;-0.522;2023-07-22T06:28:56;15.15;74.65
68912;SHT31;55953;51.650;-0.522;2023-07-22T06:31:24;15.16;74.63
68912;SHT31;55953;51.650;-0.522;2023-07-22T06:33:57;15.23;74.70
68912;SHT31;55953;51.650;-0.522;2023-07-22T06:36:27;15.33;74.57
68912;SHT31;55953;51.650;-0.522;2023-07-22T06:38:56;15.45;74.39
68912;SHT31;55953;51.650;-0.522;2023-07-22T06:41:24;15.48;74.06
68912;SHT31;55953;51.650;-0.522;2023-07-22T06:43:52;15.53;74.03
68912;SHT31;55953;51.650;-0.522;2023-07-22T06:46:20;15.62;73.96
68912;SHT31;55953;51.650;-0.522;2023-07-22T06:48:48;15.70;73.72
68912;SHT31;55953;51.650;-0.522;2023-07-22T06:51:16;15.74;73.38
68912;SHT31;55953;51.650;-0.522;2023-07-22T06:53:44;15.81;73.37
68912;SHT31;55953;51.650;-0.522;2023-07-22T06:56:11;15.92;73.33
68912;SHT31;55953;51.650;-0.522;2023-07-22T06:58:39;16.02;73.03
68912;SHT31;55953;51.650;-0.522;2023-07-22T07:01:07;16.05;72.69
68912;SHT31;55953;51.650;-0.522;2023-07-22T07:03:35;16.17;72.96
68912;SHT31;55953;51.650;-0.522;2023-07-22T07:06:03;16.36;72.58
68912;SHT31;55953;51.650;-0.522;2023-07-22T07:08:30;16.49;71.81
68912;SHT31;55953;51.650;-0.522;2023-07-22T07:10:59;16.58;71.71
68912;SHT31;55953;51.650;-0.522;2023-07-22T07:13:28;16.74;71.66
68912;SHT31;55953;51.650;-0.522;2023-07-22T07:15:56;16.94;71.36
68912;SHT31;55953;51.650;-0.522;2023-07-22T07:18:53;17.06;70.52
68912;SHT31;55953;51.650;-0.522;2023-07-22T07:21:22;17.08;70.40
68912;SHT31;55953;51.650;-0.522;2023-07-22T07:23:51;17.08;70.37
68912;SHT31;55953;51.650;-0.522;2023-07-22T07:26:20;17.02;70.41
68912;SHT31;55953;51.650;-0.522;2023-07-22T07:28:49;16.97;70.26
68912;SHT31;55953;51.650;-0.522;2023-07-22T07:31:18;16.89;70.31
68912;SHT31;55953;51.650;-0.522;2023-07-22T07:33:47;16.80;70.17
68912;SHT31;55953;51.650;-0.522;2023-07-22T07:36:14;16.85;70.47
68912;SHT31;55953;51.650;-0.522;2023-07-22T07:38:42;16.93;70.49
68912;SHT31;55953;51.650;-0.522;2023-07-22T07:41:10;17.02;70.34
68912;SHT31;55953;51.650;-0.522;2023-07-22T07:43:42;17.06;70.05
68912;SHT31;55953;51.650;-0.522;2023-07-22T07:46:17;17.04;69.87
68912;SHT31;55953;51.650;-0.522;2023-07-22T07:48:55;17.08;70.03
68912;SHT31;55953;51.650;-0.522;2023-07-22T07:51:30;17.23;69.84
68912;SHT31;55953;51.650;-0.522;2023-07-22T07:53:59;17.38;69.81
68912;SHT31;55953;51.650;-0.522;2023-07-22T07:56:27;17.54;69.20
68912;SHT31;55953;51.650;-0.522;2023-07-22T07:58:56;17.65;69.02
68912;SHT31;55953;51.650;-0.522;2023-07-22T08:01:25;17.73;68.64
68912;SHT31;55953;51.650;-0.522;2023-07-22T08:03:53;17.76;68.46
68912;SHT31;55953;51.650;-0.522;2023-07-22T08:06:21;17.83;68.56
68912;SHT31;55953;51.650;-0.522;2023-07-22T08:08:50;17.88;68.19
68912;SHT31;55953;51.650;-0.522;2023-07-22T08:11:17;17.91;68.28
68912;SHT31;55953;51.650;-0.522;2023-07-22T08:13:45;18.02;68.13
68912;SHT31;55953;51.650;-0.522;2023-07-22T08:16:13;18.12;67.66
68912;SHT31;55953;51.650;-0.522;2023-07-22T08:18:41;18.18;67.46
68912;SHT31;55953;51.650;-0.522;2023-07-22T08:21:09;18.29;67.36
68912;SHT31;55953;51.650;-0.522;2023-07-22T08:23:37;18.36;67.25
68912;SHT31;55953;51.650;-0.522;2023-07-22T08:26:05;18.51;67.06
68912;SHT31;55953;51.650;-0.522;2023-07-22T08:28:33;18.70;66.47
68912;SHT31;55953;51.650;-0.522;2023-07-22T08:31:02;18.85;66.13
68912;SHT31;55953;51.650;-0.522;2023-07-22T08:33:30;19.03;66.22
68912;SHT31;55953;51.650;-0.522;2023-07-22T08:36:01;19.23;65.95
68912;SHT31;55953;51.650;-0.522;2023-07-22T08:38:30;19.30;65.07
68912;SHT31;55953;51.650;-0.522;2023-07-22T08:40:58;19.32;64.60
68912;SHT31;55953;51.650;-0.522;2023-07-22T08:43:27;19.28;64.15
68912;SHT31;55953;51.650;-0.522;2023-07-22T08:45:59;19.33;64.77
68912;SHT31;55953;51.650;-0.522;2023-07-22T08:48:30;19.47;64.52
68912;SHT31;55953;51.650;-0.522;2023-07-22T08:51:04;19.50;64.27
68912;SHT31;55953;51.650;-0.522;2023-07-22T08:53:37;19.48;64.32
68912;SHT31;55953;51.650;-0.522;2023-07-22T08:56:05;19.52;64.45
68912;SHT31;55953;51.650;-0.522;2023-07-22T08:58:34;19.52;63.86
68912;SHT31;55953;51.650;-0.522;2023-07-22T09:01:03;19.41;63.66
68912;SHT31;55953;51.650;-0.522;2023-07-22T09:03:33;19.32;64.01
68912;SHT31;55953;51.650;-0.522;2023-07-22T09:06:00;19.30;63.92
68912;SHT31;55953;51.650;-0.522;2023-07-22T09:08:33;19.29;64.23
68912;SHT31;55953;51.650;-0.522;2023-07-22T09:11:01;19.28;63.90
68912;SHT31;55953;51.650;-0.522;2023-07-22T09:13:29;19.22;64.12
68912;SHT31;55953;51.650;-0.522;2023-07-22T09:15:58;19.24;64.30
68912;SHT31;55953;51.650;-0.522;2023-07-22T09:18:28;19.19;64.15
68912;SHT31;55953;51.650;-0.522;2023-07-22T09:20:55;19.10;64.49
68912;SHT31;55953;51.650;-0.522;2023-07-22T09:23:36;19.07;64.85
68912;SHT31;55953;51.650;-0.522;2023-07-22T09:26:12;19.01;64.88
68912;SHT31;55953;51.650;-0.522;2023-07-22T09:31:23;18.74;64.92
68912;SHT31;55953;51.650;-0.522;2023-07-22T09:33:54;18.75;65.50
68912;SHT31;55953;51.650;-0.522;2023-07-22T09:36:22;18.80;65.21
68912;SHT31;55953;51.650;-0.522;2023-07-22T09:39:00;18.96;65.22
68912;SHT31;55953;51.650;-0.522;2023-07-22T09:41:31;19.11;64.76
68912;SHT31;55953;51.650;-0.522;2023-07-22T09:44:03;19.27;64.52
68912;SHT31;55953;51.650;-0.522;2023-07-22T09:46:31;19.34;64.28
68912;SHT31;55953;51.650;-0.522;2023-07-22T09:49:03;19.44;64.68
68912;SHT31;55953;51.650;-0.522;2023-07-22T09:51:33;19.55;64.36
68912;SHT31;55953;51.650;-0.522;2023-07-22T09:54:19;19.59;64.08
68912;SHT31;55953;51.650;-0.522;2023-07-22T09:56:48;19.68;63.63
68912;SHT31;55953;51.650;-0.522;2023-07-22T09:59:19;19.71;63.14
68912;SHT31;55953;51.650;-0.522;2023-07-22T10:01:50;19.77;63.17
68912;SHT31;55953;51.650;-0.522;2023-07-22T10:04:19;19.79;62.80
68912;SHT31;55953;51.650;-0.522;2023-07-22T10:06:51;19.87;62.56
68912;SHT31;55953;51.650;-0.522;2023-07-22T10:09:20;19.93;62.61
68912;SHT31;55953;51.650;-0.522;2023-07-22T10:11:52;19.92;62.59
68912;SHT31;55953;51.650;-0.522;2023-07-22T10:14:20;19.94;62.56
68912;SHT31;55953;51.650;-0.522;2023-07-22T10:16:48;20.01;62.09
68912;SHT31;55953;51.650;-0.522;2023-07-22T10:19:17;20.10;61.86
68912;SHT31;55953;51.650;-0.522;2023-07-22T10:21:45;20.14;61.49
68912;SHT31;55953;51.650;-0.522;2023-07-22T10:24:13;20.17;61.45
68912;SHT31;55953;51.650;-0.522;2023-07-22T10:26:41;20.02;61.12
68912;SHT31;55953;51.650;-0.522;2023-07-22T10:29:14;19.75;61.61
68912;SHT31;55953;51.650;-0.522;2023-07-22T10:31:42;19.55;61.72
68912;SHT31;55953;51.650;-0.522;2023-07-22T10:34:10;19.34;62.41
68912;SHT31;55953;51.650;-0.522;2023-07-22T10:36:38;19.24;62.51
68912;SHT31;55953;51.650;-0.522;2023-07-22T10:39:06;19.15;62.88
68912;SHT31;55953;51.650;-0.522;2023-07-22T10:41:34;19.09;63.27
68912;SHT31;55953;51.650;-0.522;2023-07-22T10:44:06;19.05;63.51
68912;SHT31;55953;51.650;-0.522;2023-07-22T10:46:38;18.94;63.23
68912;SHT31;55953;51.650;-0.522;2023-07-22T10:49:12;18.81;63.32
68912;SHT31;55953;51.650;-0.522;2023-07-22T10:51:47;18.70;63.48
68912;SHT31;55953;51.650;-0.522;2023-07-22T10:54:31;18.59;63.49
68912;SHT31;55953;51.650;-0.522;2023-07-22T10:57:03;18.48;63.95
68912;SHT31;55953;51.650;-0.522;2023-07-22T10:59:54;18.45;63.79
68912;SHT31;55953;51.650;-0.522;2023-07-22T11:02:27;18.51;64.19
68912;SHT31;55953;51.650;-0.522;2023-07-22T11:04:57;18.64;64.15
68912;SHT31;55953;51.650;-0.522;2023-07-22T11:07:34;18.68;63.57
68912;SHT31;55953;51.650;-0.522;2023-07-22T11:10:14;18.73;63.55
68912;SHT31;55953;51.650;-0.522;2023-07-22T11:12:45;18.76;63.78
68912;SHT31;55953;51.650;-0.522;2023-07-22T11:15:15;18.77;64.59
68912;SHT31;55953;51.650;-0.522;2023-07-22T11:17:45;18.75;65.28
68912;SHT31;55953;51.650;-0.522;2023-07-22T11:20:13;18.67;65.72
68912;SHT31;55953;51.650;-0.522;2023-07-22T11:22:41;18.48;66.50
68912;SHT31;55953;51.650;-0.522;2023-07-22T11:25:16;18.34;67.99
68912;SHT31;55953;51.650;-0.522;2023-07-22T11:27:46;18.22;68.82
68912;SHT31;55953;51.650;-0.522;2023-07-22T11:30:14;18.11;69.59
68912;SHT31;55953;51.650;-0.522;2023-07-22T11:32:42;17.89;70.06
68912;SHT31;55953;51.650;-0.522;2023-07-22T11:35:11;17.75;71.25
68912;SHT31;55953;51.650;-0.522;2023-07-22T11:37:39;17.64;71.56
68912;SHT31;55953;51.650;-0.522;2023-07-22T11:40:06;17.49;72.14
68912;SHT31;55953;51.650;-0.522;2023-07-22T11:42:41;17.32;72.52
68912;SHT31;55953;51.650;-0.522;2023-07-22T11:45:09;17.18;72.96
68912;SHT31;55953;51.650;-0.522;2023-07-22T11:47:38;17.04;73.40
68912;SHT31;55953;51.650;-0.522;2023-07-22T11:50:06;16.91;73.81
68912;SHT31;55953;51.650;-0.522;2023-07-22T11:52:34;16.78;73.90
68912;SHT31;55953;51.650;-0.522;2023-07-22T11:55:02;16.67;74.16
68912;SHT31;55953;51.650;-0.522;2023-07-22T11:57:31;16.67;74.65
68912;SHT31;55953;51.650;-0.522;2023-07-22T11:59:58;16.69;75.32
68912;SHT31;55953;51.650;-0.522;2023-07-22T12:02:27;16.64;76.31
68912;SHT31;55953;51.650;-0.522;2023-07-22T12:05:00;16.65;76.35
68912;SHT31;55953;51.650;-0.522;2023-07-22T12:07:33;16.68;76.62
68912;SHT31;55953;51.650;-0.522;2023-07-22T12:10:04;16.69;76.65
68912;SHT31;55953;51.650;-0.522;2023-07-22T12:12:39;16.67;76.71
68912;SHT31;55953;51.650;-0.522;2023-07-22T12:15:15;16.70;77.24
68912;SHT31;55953;51.650;-0.522;2023-07-22T12:17:53;16.71;77.33
68912;SHT31;55953;51.650;-0.522;2023-07-22T12:20:27;16.74;77.67
68912;SHT31;55953;51.650;-0.522;2023-07-22T12:22:58;16.82;77.76
68912;SHT31;55953;51.650;-0.522;2023-07-22T12:25:27;16.83;77.77
68912;SHT31;55953;51.650;-0.522;2023-07-22T12:27:55;16.76;77.75
68912;SHT31;55953;51.650;-0.522;2023-07-22T12:30:23;16.68;78.07
68912;SHT31;55953;51.650;-0.522;2023-07-22T12:32:51;16.60;78.42
68912;SHT31;55953;51.650;-0.522;2023-07-22T12:35:19;16.56;78.63
68912;SHT31;55953;51.650;-0.522;2023-07-22T12:37:47;16.56;78.91
68912;SHT31;55953;51.650;-0.522;2023-07-22T12:40:14;16.53;78.90
68912;SHT31;55953;51.650;-0.522;2023-07-22T12:42:42;16.54;79.16
68912;SHT31;55953;51.650;-0.522;2023-07-22T12:45:10;16.55;79.16
68912;SHT31;55953;51.650;-0.522;2023-07-22T12:47:38;16.54;79.38
68912;SHT31;55953;51.650;-0.522;2023-07-22T12:50:06;16.52;79.71
68912;SHT31;55953;51.650;-0.522;2023-07-22T12:52:36;16.52;79.66
68912;SHT31;55953;51.650;-0.522;2023-07-22T12:55:05;16.53;79.62
68912;SHT31;55953;51.650;-0.522;2023-07-22T12:57:33;16.48;79.65
68912;SHT31;55953;51.650;-0.522;2023-07-22T13:00:01;16.50;79.78
68912;SHT31;55953;51.650;-0.522;2023-07-22T13:02:31;16.47;79.60
68912;SHT31;55953;51.650;-0.522;2023-07-22T13:04:59;16.45;79.75
68912;SHT31;55953;51.650;-0.522;2023-07-22T13:07:27;16.44;79.90
68912;SHT31;55953;51.650;-0.522;2023-07-22T13:09:56;16.42;80.18
68912;SHT31;55953;51.650;-0.522;2023-07-22T13:12:24;16.39;80.43
68912;SHT31;55953;51.650;-0.522;2023-07-22T13:14:53;16.33;80.54
68912;SHT31;55953;51.650;-0.522;2023-07-22T13:17:21;16.26;80.58
68912;SHT31;55953;51.650;-0.522;2023-07-22T13:19:49;16.21;80.91
68912;SHT31;55953;51.650;-0.522;2023-07-22T13:22:17;16.16;81.11
68912;SHT31;55953;51.650;-0.522;2023-07-22T13:24:45;16.09;81.22
68912;SHT31;55953;51.650;-0.522;2023-07-22T13:27:13;16.04;81.34
68912;SHT31;55953;51.650;-0.522;2023-07-22T13:29:41;15.98;81.68
68912;SHT31;55953;51.650;-0.522;2023-07-22T13:32:08;15.99;81.89
68912;SHT31;55953;51.650;-0.522;2023-07-22T13:34:36;15.99;81.99
68912;SHT31;55953;51.650;-0.522;2023-07-22T13:37:04;15.98;81.84
68912;SHT31;55953;51.650;-0.522;2023-07-22T13:39:33;15.93;81.70
68912;SHT31;55953;51.650;-0.522;2023-07-22T13:42:01;15.92;81.95
68912;SHT31;55953;51.650;-0.522;2023-07-22T13:44:29;15.92;82.93
68912;SHT31;55953;51.650;-0.522;2023-07-22T13:46:57;15.92;82.81
68912;SHT31;55953;51.650;-0.522;2023-07-22T13:49:25;15.85;82.82
68912;SHT31;55953;51.650;-0.522;2023-07-22T13:51:53;15.88;83.09
68912;SHT31;55953;51.650;-0.522;2023-07-22T13:54:20;15.91;82.97
68912;SHT31;55953;51.650;-0.522;2023-07-22T13:56:48;15.93;83.30
68912;SHT31;55953;51.650;-0.522;2023-07-22T13:59:16;15.92;83.11
68912;SHT31;55953;51.650;-0.522;2023-07-22T14:01:44;15.92;83.31
68912;SHT31;55953;51.650;-0.522;2023-07-22T14:04:11;15.88;83.15
68912;SHT31;55953;51.650;-0.522;2023-07-22T14:06:39;15.90;83.38
68912;SHT31;55953;51.650;-0.522;2023-07-22T14:09:07;15.96;83.62
68912;SHT31;55953;51.650;-0.522;2023-07-22T14:11:35;15.99;83.48
68912;SHT31;55953;51.650;-0.522;2023-07-22T14:14:03;16.01;83.49
68912;SHT31;55953;51.650;-0.522;2023-07-22T14:16:31;16.06;83.79
68912;SHT31;55953;51.650;-0.522;2023-07-22T14:19:01;16.08;83.59
68912;SHT31;55953;51.650;-0.522;2023-07-22T14:21:29;16.10;83.66
68912;SHT31;55953;51.650;-0.522;2023-07-22T14:23:56;16.18;83.64
68912;SHT31;55953;51.650;-0.522;2023-07-22T14:26:24;16.18;83.74
68912;SHT31;55953;51.650;-0.522;2023-07-22T14:28:52;16.13;83.76
68912;SHT31;55953;51.650;-0.522;2023-07-22T14:31:20;16.09;83.72
68912;SHT31;55953;51.650;-0.522;2023-07-22T14:33:48;16.05;83.78
68912;SHT31;55953;51.650;-0.522;2023-07-22T14:36:15;16.03;83.85
68912;SHT31;55953;51.650;-0.522;2023-07-22T14:38:43;16.00;83.99
68912;SHT31;55953;51.650;-0.522;2023-07-22T14:41:11;15.95;84.10
68912;SHT31;55953;51.650;-0.522;2023-07-22T14:43:39;15.90;84.19
68912;SHT31;55953;51.650;-0.522;2023-07-22T14:46:07;15.88;84.36
68912;SHT31;55953;51.650;-0.522;2023-07-22T14:48:35;15.91;84.44
68912;SHT31;55953;51.650;-0.522;2023-07-22T14:51:03;15.90;84.65
68912;SHT31;55953;51.650;-0.522;2023-07-22T14:53:31;15.84;84.59
68912;SHT31;55953;51.650;-0.522;2023-07-22T14:55:59;15.85;84.79
68912;SHT31;55953;51.650;-0.522;2023-07-22T14:58:26;15.87;84.88
68912;SHT31;55953;51.650;-0.522;2023-07-22T15:00:54;15.92;84.79
68912;SHT31;55953;51.650;-0.522;2023-07-22T15:03:22;15.98;84.73
68912;SHT31;55953;51.650;-0.522;2023-07-22T15:05:50;15.99;84.74
68912;SHT31;55953;51.650;-0.522;2023-07-22T15:08:18;16.04;84.83
68912;SHT31;55953;51.650;-0.522;2023-07-22T15:10:46;16.08;84.97
68912;SHT31;55953;51.650;-0.522;2023-07-22T15:13:14;16.10;84.74
68912;SHT31;55953;51.650;-0.522;2023-07-22T15:15:42;16.05;84.96
68912;SHT31;55953;51.650;-0.522;2023-07-22T15:18:09;16.02;85.00
68912;SHT31;55953;51.650;-0.522;2023-07-22T15:20:37;16.03;85.18
68912;SHT31;55953;51.650;-0.522;2023-07-22T15:23:05;16.00;85.17
68912;SHT31;55953;51.650;-0.522;2023-07-22T15:25:33;16.00;85.13
68912;SHT31;55953;51.650;-0.522;2023-07-22T15:28:00;16.01;85.18